Terminal Aerodrome Forecast
Issued by NWS

Home | Current Version | Previous Version | Text Only | Print | Product List | Glossary On
Versions: 1 2 3 4 5 6 7 8 9 10 11 12 13 14 15 16 17 18 19 20 21 22 23 24
000
FTUS44 KLIX 220531
TAFGPT
TAF
KGPT 220531Z 2206/2306 14010KT 1 1/2SM BR OVC002
      TEMPO 2206/2209 3/4SM BR VV002
     FM220900 14008KT 1SM BR VV002
      TEMPO 2209/2213 1/2SM FG
     FM221430 13009KT 4SM BR BKN015
     FM221700 13012KT P6SM SCT025 SCT040
     FM230200 12007KT 5SM BR BKN010=

USA.gov is the U.S. government's official web portal to all federal, state and local government web resources and services.